»·PEaware :: N256Z KELP-KIWA

N256Z :: KELP-KIWA

FLIGHT INFORMATION

Flight Status: Arrived
Operator: Privately registered:
United States
More flights under this callsign
Pilot: Gregory A. (9731)
Aircraft: PIPER PA-46-500TP MALIBU MERIDIAN
(P46T)
More flights by this aircraft type
Origin: KELP El Paso Intl
United States
Destination: KIWA Williams Gateway
United States
More flights between these airports :: More routes between these airports
Route: +ELP V198 SSO SUNSS8
File this flight plan on PilotEdge
Remarks:
Altitude:
(Current/Filed)
280ft
Speed:
(Current/Filed)
274kts
Departed: 31-Jul-18 02:09 PM
Arrived: 31-Jul-18 03:42 PM
Distance/Time
Traveled:
282nm/1:33
Distance/Time
To Go:
Arrived

Flight Plot

Page will automatically refresh every two minutes.


Map Options




Map Legend


Flown Route
Filed Route
Departure Airport
Arrival Airport
Navaid (VOR, NDB)
Fix

Horizontal Profiles

Position Reports

Time Latitude Longitude Heading Altitude Ground
Speed
31-Jul-18 13:36 31.796282 -106.390928 312 3962ft 0kts
31-Jul-18 13:37 31.796282 -106.390928 312 3962ft 0kts
31-Jul-18 13:38 31.796282 -106.390928 312 3962ft 0kts
31-Jul-18 13:39 31.796282 -106.390928 312 3962ft 0kts
31-Jul-18 13:40 31.796281 -106.390928 312 3962ft 0kts
31-Jul-18 13:41 31.796281 -106.390928 312 3962ft 0kts
31-Jul-18 13:42 31.796281 -106.390928 312 3962ft 0kts
31-Jul-18 13:43 31.796281 -106.390928 312 3962ft 0kts
31-Jul-18 13:44 31.796281 -106.390928 312 3962ft 0kts
31-Jul-18 13:45 31.796281 -106.390928 312 3962ft 0kts
31-Jul-18 13:46 31.796281 -106.390928 312 3962ft 0kts
31-Jul-18 13:47 31.796281 -106.390928 312 3962ft 0kts
31-Jul-18 13:48 31.796281 -106.390928 312 3962ft 0kts
31-Jul-18 13:49 31.796281 -106.390928 312 3962ft 0kts
31-Jul-18 13:50 31.796281 -106.390928 312 3962ft 0kts
31-Jul-18 13:51 31.796281 -106.390928 312 3962ft 0kts
31-Jul-18 13:52 31.796281 -106.390928 312 3962ft 0kts
31-Jul-18 13:53 31.796281 -106.390928 312 3962ft 0kts
31-Jul-18 13:54 31.796281 -106.390928 312 3962ft 0kts
31-Jul-18 13:55 31.796281 -106.390928 312 3962ft 0kts
31-Jul-18 13:56 31.796281 -106.390928 312 3962ft 0kts
31-Jul-18 13:57 31.796281 -106.390928 312 3962ft 0kts
31-Jul-18 13:58 31.796281 -106.390928 312 3962ft 0kts
31-Jul-18 13:59 31.796281 -106.390928 312 3962ft 0kts
31-Jul-18 14:00 31.796282 -106.390930 312 3962ft 0kts
31-Jul-18 14:01 31.796613 -106.390771 34 3962ft 2kts
31-Jul-18 14:02 31.797562 -106.389871 37 3962ft 5kts
31-Jul-18 14:03 31.798996 -106.389455 309 3962ft 12kts
31-Jul-18 14:04 31.800173 -106.388397 96 3962ft 25kts
31-Jul-18 14:05 31.799776 -106.378665 94 3962ft 31kts
31-Jul-18 14:06 31.799433 -106.368625 94 3962ft 31kts
31-Jul-18 14:07 31.800271 -106.363795 359 3962ft 0kts
31-Jul-18 14:08 31.800271 -106.363795 359 3962ft 0kts
31-Jul-18 14:09 31.800656 -106.363822 337 3962ft 7kts
31-Jul-18 14:10 31.798763 -106.388232 214 4476ft 122kts
31-Jul-18 14:11 31.768242 -106.358726 127 6394ft 182kts
31-Jul-18 14:12 31.740366 -106.305345 94 8199ft 199kts
31-Jul-18 14:13 31.780593 -106.269317 8 10219ft 204kts
31-Jul-18 14:14 31.836290 -106.252472 8 12218ft 209kts
31-Jul-18 14:15 31.890111 -106.249380 309 14197ft 188kts
31-Jul-18 14:16 31.903379 -106.308971 277 16236ft 194kts
31-Jul-18 14:17 31.904945 -106.378090 251 16911ft 236kts
31-Jul-18 14:18 31.882850 -106.444314 247 16969ft 203kts
31-Jul-18 14:19 31.862683 -106.502775 247 18640ft 185kts
31-Jul-18 14:20 31.853879 -106.560608 248 20632ft 175kts
31-Jul-18 14:21 31.833044 -106.610189 240 22608ft 163kts
31-Jul-18 14:22 31.817902 -106.661301 259 24565ft 180kts
31-Jul-18 14:23 31.818490 -106.724070 274 26209ft 200kts
31-Jul-18 14:24 31.824467 -106.789447 272 27727ft 204kts
31-Jul-18 14:25 31.825905 -106.863830 268 27920ft 245kts
31-Jul-18 14:26 31.825302 -106.946337 269 27924ft 256kts
31-Jul-18 14:27 31.826392 -107.030830 271 27928ft 258kts
31-Jul-18 14:28 31.828416 -107.114812 271 28158ft 250kts
31-Jul-18 14:29 31.829738 -107.193477 270 29122ft 232kts
31-Jul-18 14:30 31.830225 -107.268388 270 30097ft 227kts
31-Jul-18 14:31 31.831237 -107.345808 271 30211ft 246kts
31-Jul-18 14:32 31.832850 -107.427659 271 30204ft 251kts
31-Jul-18 14:33 31.832528 -107.509991 267 30205ft 252kts
31-Jul-18 14:34 31.827855 -107.592346 266 30206ft 253kts
31-Jul-18 14:35 31.841840 -107.672353 278 30212ft 253kts
31-Jul-18 14:36 31.854919 -107.753319 291 30215ft 254kts
31-Jul-18 14:37 31.889404 -107.826163 300 30070ft 259kts
31-Jul-18 14:38 31.926009 -107.901709 294 29406ft 268kts
31-Jul-18 14:39 31.951026 -107.984801 282 28733ft 271kts
31-Jul-18 14:40 31.963866 -108.072131 277 28228ft 266kts
31-Jul-18 14:41 31.975765 -108.156304 281 28220ft 257kts
31-Jul-18 14:42 31.995999 -108.236807 288 28209ft 256kts
31-Jul-18 14:43 32.022648 -108.314888 290 28217ft 256kts
31-Jul-18 14:44 32.047268 -108.393229 286 28233ft 255kts
31-Jul-18 14:45 32.066300 -108.473643 283 28233ft 254kts
31-Jul-18 14:46 32.084013 -108.554589 284 28232ft 254kts
31-Jul-18 14:47 32.104823 -108.634277 286 28231ft 254kts
31-Jul-18 14:48 32.127315 -108.713684 286 28230ft 254kts
31-Jul-18 14:49 32.147924 -108.793457 284 28228ft 254kts
31-Jul-18 14:50 32.167900 -108.873321 285 28227ft 253kts
31-Jul-18 14:51 32.188914 -108.953008 285 28225ft 253kts
31-Jul-18 14:52 32.209520 -109.032561 285 28223ft 253kts
31-Jul-18 14:53 32.230161 -109.112109 285 28221ft 253kts
31-Jul-18 14:54 32.250817 -109.191967 285 28218ft 253kts
31-Jul-18 14:55 32.271792 -109.271417 286 28216ft 253kts
31-Jul-18 14:56 32.292684 -109.351212 285 28214ft 253kts
31-Jul-18 14:57 32.312586 -109.431256 284 28212ft 254kts
31-Jul-18 14:58 32.332187 -109.511541 284 28209ft 254kts
31-Jul-18 14:59 32.351760 -109.592179 284 28170ft 256kts
31-Jul-18 15:00 32.371704 -109.674620 284 27689ft 264kts
31-Jul-18 15:01 32.391991 -109.758654 284 27190ft 267kts
31-Jul-18 15:02 32.412409 -109.843647 284 26690ft 268kts
31-Jul-18 15:03 32.432822 -109.928845 284 26191ft 270kts
31-Jul-18 15:04 32.453237 -110.014638 284 25691ft 270kts
31-Jul-18 15:05 32.473579 -110.100388 283 25192ft 271kts
31-Jul-18 15:06 32.493918 -110.186421 283 24693ft 272kts
31-Jul-18 15:07 32.514298 -110.272896 283 24223ft 270kts
31-Jul-18 15:08 32.534196 -110.357831 283 23694ft 269kts
31-Jul-18 15:09 32.554043 -110.442726 283 22514ft 261kts
31-Jul-18 15:10 32.572649 -110.523042 283 21308ft 244kts
31-Jul-18 15:11 32.590265 -110.599757 282 20129ft 239kts
31-Jul-18 15:12 32.608038 -110.676072 282 18943ft 240kts
31-Jul-18 15:13 32.625580 -110.752758 283 17779ft 241kts
31-Jul-18 15:14 32.643164 -110.829747 281 16596ft 241kts
31-Jul-18 15:15 32.660626 -110.904798 281 15415ft 223kts
31-Jul-18 15:16 32.677102 -110.972803 295 14237ft 210kts
31-Jul-18 15:17 32.712161 -111.026800 306 13070ft 203kts
31-Jul-18 15:18 32.749939 -111.075648 307 11880ft 196kts
31-Jul-18 15:19 32.785694 -111.121778 308 10705ft 186kts
31-Jul-18 15:20 32.820626 -111.167056 309 9515ft 186kts
31-Jul-18 15:21 32.854959 -111.211831 309 9229ft 189kts
31-Jul-18 15:22 32.891529 -111.259077 307 9228ft 190kts
31-Jul-18 15:23 32.926707 -111.304824 308 9224ft 184kts
31-Jul-18 15:24 32.960824 -111.349353 307 9216ft 180kts
31-Jul-18 15:25 32.994721 -111.393272 315 9215ft 181kts
31-Jul-18 15:26 33.031844 -111.434179 312 9212ft 181kts
31-Jul-18 15:27 33.068200 -111.475713 311 9218ft 181kts
31-Jul-18 15:28 33.101347 -111.513536 312 9216ft 187kts
31-Jul-18 15:29 33.139497 -111.557050 311 9211ft 190kts
31-Jul-18 15:30 33.177471 -111.600613 312 9212ft 189kts
31-Jul-18 15:31 33.215152 -111.644211 311 9220ft 188kts
31-Jul-18 15:32 33.253104 -111.688151 312 8370ft 178kts
31-Jul-18 15:33 33.284456 -111.724328 311 7444ft 169kts
31-Jul-18 15:34 33.315947 -111.765361 303 6474ft 164kts
31-Jul-18 15:35 33.341249 -111.809581 301 5487ft 159kts
31-Jul-18 15:36 33.363806 -111.849955 301 5182ft 129kts
31-Jul-18 15:37 33.395709 -111.845412 28 4644ft 143kts
31-Jul-18 15:38 33.430578 -111.814669 78 3989ft 171kts
31-Jul-18 15:39 33.404823 -111.772821 142 3326ft 170kts
31-Jul-18 15:40 33.372125 -111.737024 136 3225ft 140kts
31-Jul-18 15:41 33.346217 -111.706660 134 2591ft 119kts
31-Jul-18 15:42 33.323498 -111.679492 133 1555ft 109kts
31-Jul-18 15:43 33.311600 -111.666601 215 1386ft 14kts
31-Jul-18 15:44 33.311385 -111.666818 221 1386ft 0kts
31-Jul-18 15:45 33.311384 -111.666818 221 1386ft 0kts
31-Jul-18 15:46 33.311384 -111.666818 221 1386ft 0kts

Navigation Log

Ident Type
Flight plan parsing failed, navigation log unavailable